Clifton East End, Maryland
Current Conditions -  °F | °C
As of 8:54 PM on Thursday 20 Nov 2014 (Local Time) from KMTN Reporting Station
Clear Clear  
Wind Chill: 28°   Ceiling: Unl
Heat Index: 37°   Visibility: 10mi
Dew Point: 14°   Wind: 17mph
Humidity: 38%   Direction: 290°WNW
Pressure: 30.05"   Gusts: 21mph
Location:  39.315°N, 76.5768°W
Report Text: KMTN 210154Z 29015G18KT 10SM SKC 03/M10 A3005
Loading
Personal Weather Stations






























Interactive Weather Map New forecast layout! Learn more

10-Day Weather Forecast

Advertisements
Track Severe Weather on mobile